Englewood, Kansas
Current Conditions -  °F | °C
As of 3:15 PM on Saturday 20 Dec 2014 (Local Time) from KWWR Reporting Station
Clear Clear  
Wind Chill: 52°   Ceiling: Unl
Heat Index: 52°   Visibility: 10mi
Dew Point: 36°   Wind: 13mph
Humidity: 54%   Direction: 190°S
Pressure: 30.07"   Gusts: 18mph
Location:  37.04°N, 99.98°W
Report Text: KWWR 202115Z AUTO 19011G16KT 10SM CLR 11/02 A3007 RMK AO2
Loading
Personal Weather Stations






























Interactive Weather Map New forecast layout! Learn more

10-Day Weather Forecast

Advertisements
Track Severe Weather on mobile